Main page
METAR-TAF:

METAR-TAF

Airports :

Touat-Cheikh Sidi Mohamed Belkebir Airport

Adrar, Algeria

latitude: 27-53N, longitude: 000-17W, elevation: 263 m

Current weather observation

The report was made 53 minutes ago, at 19:00 UTC
Wind 8 kt from the Southwest
Temperature 29°C
Pressure 1009 hPa
Visibility 10 km or more
no clouds below 1500 m and no cumulonimbus

METAR: DAUA 011900Z 23008KT CAVOK 29/// Q1009

Time: 20:53 (19:53 UTC)

Forecast

The report was made 2 hours and 53 minutes ago, at 17:00 UTC
Forecast valid from 01 at 18 UTC to 02 at 18 UTC
Wind 12 kt from the West/Southwest
Visibility 10 km or more
no clouds below 1500 m and no cumulonimbus
Probability 30% :
Temporary
from 02 at 12 UTC to 02 at 18 UTC
Wind 15 kt from the West/Southwest with gusts up to 25 kt
Visibility: 4000 m
Low drifting sand

TAF: DAUA 011700Z 0118/0218 24012KT CAVOK PROB30 TEMPO 0212/0218 24015G25KT 4000 DRSA

Weather observations and forecasts of more than 4000 airports (METAR and TAF reports).

The available stations are represented by yellow and red dots on the map.

Hover mouse over dot to see the name of the station.

Then click to see weather observations and forecasts.

To change the map : click on the green buttons with a black cross to zoom in, on the green button with a dash to zoom out, or on the green arrows for adjacent maps.


METAR-TAF: